sensor_id;sensor_type;location;lat;lon;timestamp;temperature;humidity
60701;DHT22;46541;49.894;10.886;2022-07-30T00:00:11;19.60;99.90
60701;DHT22;46541;49.894;10.886;2022-07-30T00:02:50;19.60;99.90
60701;DHT22;46541;49.894;10.886;2022-07-30T00:05:17;19.60;99.90
60701;DHT22;46541;49.894;10.886;2022-07-30T00:07:44;19.60;99.90
60701;DHT22;46541;49.894;10.886;2022-07-30T00:10:11;19.70;99.90
60701;DHT22;46541;49.894;10.886;2022-07-30T00:12:38;19.70;99.90
60701;DHT22;46541;49.894;10.886;2022-07-30T00:15:05;19.80;99.90
60701;DHT22;46541;49.894;10.886;2022-07-30T00:17:32;19.80;99.90
60701;DHT22;46541;49.894;10.886;2022-07-30T00:19:59;19.80;99.90
60701;DHT22;46541;49.894;10.886;2022-07-30T00:22:29;19.90;99.90
60701;DHT22;46541;49.894;10.886;2022-07-30T00:24:56;20.00;99.90
60701;DHT22;46541;49.894;10.886;2022-07-30T00:27:23;20.00;99.90
60701;DHT22;46541;49.894;10.886;2022-07-30T00:29:49;20.00;99.90
60701;DHT22;46541;49.894;10.886;2022-07-30T00:32:16;20.00;99.90
60701;DHT22;46541;49.894;10.886;2022-07-30T00:34:43;20.00;99.90
60701;DHT22;46541;49.894;10.886;2022-07-30T00:37:10;20.10;99.90
60701;DHT22;46541;49.894;10.886;2022-07-30T00:39:36;20.10;99.90
60701;DHT22;46541;49.894;10.886;2022-07-30T00:42:03;20.10;99.90
60701;DHT22;46541;49.894;10.886;2022-07-30T00:44:30;20.10;99.90
60701;DHT22;46541;49.894;10.886;2022-07-30T00:46:57;20.10;99.90
60701;DHT22;46541;49.894;10.886;2022-07-30T00:49:25;20.20;99.90
60701;DHT22;46541;49.894;10.886;2022-07-30T00:51:52;20.20;99.90
60701;DHT22;46541;49.894;10.886;2022-07-30T00:54:19;20.20;99.90
60701;DHT22;46541;49.894;10.886;2022-07-30T00:56:47;20.20;99.90
60701;DHT22;46541;49.894;10.886;2022-07-30T00:59:14;20.30;99.90
60701;DHT22;46541;49.894;10.886;2022-07-30T01:01:41;20.30;99.90
60701;DHT22;46541;49.894;10.886;2022-07-30T01:04:08;20.30;99.90
60701;DHT22;46541;49.894;10.886;2022-07-30T01:06:38;20.20;99.90
60701;DHT22;46541;49.894;10.886;2022-07-30T01:09:06;20.20;99.90
60701;DHT22;46541;49.894;10.886;2022-07-30T01:11:36;20.30;99.90
60701;DHT22;46541;49.894;10.886;2022-07-30T01:14:05;20.20;99.90
60701;DHT22;46541;49.894;10.886;2022-07-30T01:16:36;20.20;99.90
60701;DHT22;46541;49.894;10.886;2022-07-30T01:19:10;20.30;99.90
60701;DHT22;46541;49.894;10.886;2022-07-30T01:25:41;20.20;99.90
60701;DHT22;46541;49.894;10.886;2022-07-30T01:28:05;20.20;99.90
60701;DHT22;46541;49.894;10.886;2022-07-30T01:30:35;20.10;99.90
60701;DHT22;46541;49.894;10.886;2022-07-30T01:33:03;20.10;99.90
60701;DHT22;46541;49.894;10.886;2022-07-30T01:35:32;20.10;99.90
60701;DHT22;46541;49.894;10.886;2022-07-30T01:38:01;20.10;99.90
60701;DHT22;46541;49.894;10.886;2022-07-30T01:40:30;20.10;99.90
60701;DHT22;46541;49.894;10.886;2022-07-30T01:42:59;20.10;99.90
60701;DHT22;46541;49.894;10.886;2022-07-30T01:45:28;20.10;99.90
60701;DHT22;46541;49.894;10.886;2022-07-30T01:48:00;20.20;99.90
60701;DHT22;46541;49.894;10.886;2022-07-30T01:50:28;20.20;99.90
60701;DHT22;46541;49.894;10.886;2022-07-30T01:52:57;20.10;99.90
60701;DHT22;46541;49.894;10.886;2022-07-30T01:55:30;20.10;99.90
60701;DHT22;46541;49.894;10.886;2022-07-30T01:57:59;20.10;99.90
60701;DHT22;46541;49.894;10.886;2022-07-30T02:00:29;20.00;99.90
60701;DHT22;46541;49.894;10.886;2022-07-30T02:02:57;20.10;99.90
60701;DHT22;46541;49.894;10.886;2022-07-30T02:05:26;20.10;99.90
60701;DHT22;46541;49.894;10.886;2022-07-30T02:13:31;20.00;99.90
60701;DHT22;46541;49.894;10.886;2022-07-30T02:16:21;20.00;99.90
60701;DHT22;46541;49.894;10.886;2022-07-30T02:18:58;19.90;99.90
60701;DHT22;46541;49.894;10.886;2022-07-30T02:21:37;19.90;99.90
60701;DHT22;46541;49.894;10.886;2022-07-30T02:24:06;19.90;99.90
60701;DHT22;46541;49.894;10.886;2022-07-30T02:26:34;19.80;99.90
60701;DHT22;46541;49.894;10.886;2022-07-30T02:29:04;19.80;99.90
60701;DHT22;46541;49.894;10.886;2022-07-30T02:31:37;19.80;99.90
60701;DHT22;46541;49.894;10.886;2022-07-30T02:34:08;19.70;99.90
60701;DHT22;46541;49.894;10.886;2022-07-30T02:36:36;19.60;99.90
60701;DHT22;46541;49.894;10.886;2022-07-30T02:39:04;19.60;99.90
60701;DHT22;46541;49.894;10.886;2022-07-30T02:41:31;19.60;99.90
60701;DHT22;46541;49.894;10.886;2022-07-30T02:44:02;19.60;99.90
60701;DHT22;46541;49.894;10.886;2022-07-30T02:46:30;19.50;99.90
60701;DHT22;46541;49.894;10.886;2022-07-30T02:48:58;19.50;99.90
60701;DHT22;46541;49.894;10.886;2022-07-30T02:51:26;19.50;99.90
60701;DHT22;46541;49.894;10.886;2022-07-30T02:53:54;19.40;99.90
60701;DHT22;46541;49.894;10.886;2022-07-30T02:56:22;19.40;99.90
60701;DHT22;46541;49.894;10.886;2022-07-30T02:58:50;19.40;99.90
60701;DHT22;46541;49.894;10.886;2022-07-30T03:01:20;19.30;99.90
60701;DHT22;46541;49.894;10.886;2022-07-30T03:03:47;19.30;99.90
60701;DHT22;46541;49.894;10.886;2022-07-30T03:06:14;19.20;99.90
60701;DHT22;46541;49.894;10.886;2022-07-30T03:08:42;19.20;99.90
60701;DHT22;46541;49.894;10.886;2022-07-30T03:11:11;19.20;99.90
60701;DHT22;46541;49.894;10.886;2022-07-30T03:13:38;19.10;99.90
60701;DHT22;46541;49.894;10.886;2022-07-30T03:16:08;19.10;99.90
60701;DHT22;46541;49.894;10.886;2022-07-30T03:18:36;19.10;99.90
60701;DHT22;46541;49.894;10.886;2022-07-30T03:21:06;19.00;99.90
60701;DHT22;46541;49.894;10.886;2022-07-30T03:23:35;19.00;99.90
60701;DHT22;46541;49.894;10.886;2022-07-30T03:26:05;19.00;99.90
60701;DHT22;46541;49.894;10.886;2022-07-30T03:28:37;19.00;99.90
60701;DHT22;46541;49.894;10.886;2022-07-30T03:31:05;19.00;99.90
60701;DHT22;46541;49.894;10.886;2022-07-30T03:33:34;19.20;99.90
60701;DHT22;46541;49.894;10.886;2022-07-30T03:36:04;19.20;99.90
60701;DHT22;46541;49.894;10.886;2022-07-30T03:38:31;19.30;99.90
60701;DHT22;46541;49.894;10.886;2022-07-30T03:40:59;19.40;99.90
60701;DHT22;46541;49.894;10.886;2022-07-30T03:43:26;19.40;99.90
60701;DHT22;46541;49.894;10.886;2022-07-30T03:46:01;19.40;99.90
60701;DHT22;46541;49.894;10.886;2022-07-30T03:48:29;19.40;99.90
60701;DHT22;46541;49.894;10.886;2022-07-30T03:50:57;19.40;99.90
60701;DHT22;46541;49.894;10.886;2022-07-30T03:53:25;19.30;99.90
60701;DHT22;46541;49.894;10.886;2022-07-30T03:55:53;19.30;99.90
60701;DHT22;46541;49.894;10.886;2022-07-30T03:58:20;19.30;99.90
60701;DHT22;46541;49.894;10.886;2022-07-30T04:00:48;19.20;99.90
60701;DHT22;46541;49.894;10.886;2022-07-30T04:03:30;19.20;99.90
60701;DHT22;46541;49.894;10.886;2022-07-30T04:05:58;19.20;99.90
60701;DHT22;46541;49.894;10.886;2022-07-30T04:08:26;19.20;99.90
60701;DHT22;46541;49.894;10.886;2022-07-30T04:10:53;19.10;99.90
60701;DHT22;46541;49.894;10.886;2022-07-30T04:13:20;19.10;99.90
60701;DHT22;46541;49.894;10.886;2022-07-30T04:16:13;19.20;99.90
60701;DHT22;46541;49.894;10.886;2022-07-30T04:19:00;19.20;99.90
60701;DHT22;46541;49.894;10.886;2022-07-30T04:21:29;19.20;99.90
60701;DHT22;46541;49.894;10.886;2022-07-30T04:23:58;19.30;99.90
60701;DHT22;46541;49.894;10.886;2022-07-30T04:26:31;19.20;99.90
60701;DHT22;46541;49.894;10.886;2022-07-30T04:29:00;19.20;99.90
60701;DHT22;46541;49.894;10.886;2022-07-30T04:31:28;19.30;99.90
60701;DHT22;46541;49.894;10.886;2022-07-30T04:33:55;19.30;99.90
60701;DHT22;46541;49.894;10.886;2022-07-30T04:36:31;19.30;99.90
60701;DHT22;46541;49.894;10.886;2022-07-30T04:38:59;19.20;99.90
60701;DHT22;46541;49.894;10.886;2022-07-30T04:41:25;19.20;99.90
60701;DHT22;46541;49.894;10.886;2022-07-30T04:43:52;19.20;99.90
60701;DHT22;46541;49.894;10.886;2022-07-30T04:46:19;19.10;99.90
60701;DHT22;46541;49.894;10.886;2022-07-30T04:48:50;19.20;99.90
60701;DHT22;46541;49.894;10.886;2022-07-30T04:51:31;19.30;99.90
60701;DHT22;46541;49.894;10.886;2022-07-30T04:53:58;19.30;99.90
60701;DHT22;46541;49.894;10.886;2022-07-30T04:56:27;19.30;99.90
60701;DHT22;46541;49.894;10.886;2022-07-30T04:58:56;19.30;99.90
60701;DHT22;46541;49.894;10.886;2022-07-30T05:01:26;19.30;99.90
60701;DHT22;46541;49.894;10.886;2022-07-30T05:04:07;19.40;99.90
60701;DHT22;46541;49.894;10.886;2022-07-30T05:06:36;19.40;99.90
60701;DHT22;46541;49.894;10.886;2022-07-30T05:09:03;19.40;99.90
60701;DHT22;46541;49.894;10.886;2022-07-30T05:11:30;19.40;99.90
60701;DHT22;46541;49.894;10.886;2022-07-30T05:13:57;19.50;99.90
60701;DHT22;46541;49.894;10.886;2022-07-30T05:16:24;19.50;99.90
60701;DHT22;46541;49.894;10.886;2022-07-30T05:18:51;19.40;99.90
60701;DHT22;46541;49.894;10.886;2022-07-30T05:21:19;19.50;99.90
60701;DHT22;46541;49.894;10.886;2022-07-30T05:23:45;19.50;99.90
60701;DHT22;46541;49.894;10.886;2022-07-30T05:26:19;19.50;99.90
60701;DHT22;46541;49.894;10.886;2022-07-30T05:28:46;19.60;99.90
60701;DHT22;46541;49.894;10.886;2022-07-30T05:31:20;19.60;99.90
60701;DHT22;46541;49.894;10.886;2022-07-30T05:33:47;19.60;99.90
60701;DHT22;46541;49.894;10.886;2022-07-30T05:36:14;19.60;99.90
60701;DHT22;46541;49.894;10.886;2022-07-30T05:38:41;19.60;99.90
60701;DHT22;46541;49.894;10.886;2022-07-30T05:41:08;19.60;99.90
60701;DHT22;46541;49.894;10.886;2022-07-30T05:43:55;19.50;99.90
60701;DHT22;46541;49.894;10.886;2022-07-30T05:46:22;19.50;99.90
60701;DHT22;46541;49.894;10.886;2022-07-30T05:48:49;19.50;99.90
60701;DHT22;46541;49.894;10.886;2022-07-30T05:51:16;19.50;99.90
60701;DHT22;46541;49.894;10.886;2022-07-30T05:53:45;19.60;99.90
60701;DHT22;46541;49.894;10.886;2022-07-30T05:56:12;19.60;99.90
60701;DHT22;46541;49.894;10.886;2022-07-30T05:58:39;19.70;99.90
60701;DHT22;46541;49.894;10.886;2022-07-30T06:01:06;19.70;99.90
60701;DHT22;46541;49.894;10.886;2022-07-30T06:03:32;19.70;99.90
60701;DHT22;46541;49.894;10.886;2022-07-30T06:06:02;19.80;99.90
60701;DHT22;46541;49.894;10.886;2022-07-30T06:08:30;19.80;99.90
60701;DHT22;46541;49.894;10.886;2022-07-30T06:10:57;19.80;99.90
60701;DHT22;46541;49.894;10.886;2022-07-30T06:13:23;19.90;99.90
60701;DHT22;46541;49.894;10.886;2022-07-30T06:15:50;20.00;99.90
60701;DHT22;46541;49.894;10.886;2022-07-30T06:18:17;20.10;99.90
60701;DHT22;46541;49.894;10.886;2022-07-30T06:20:44;20.20;99.90
60701;DHT22;46541;49.894;10.886;2022-07-30T06:23:12;20.20;99.90
60701;DHT22;46541;49.894;10.886;2022-07-30T06:25:38;20.20;99.90
60701;DHT22;46541;49.894;10.886;2022-07-30T06:28:06;20.20;99.90
60701;DHT22;46541;49.894;10.886;2022-07-30T06:30:53;20.20;99.90
60701;DHT22;46541;49.894;10.886;2022-07-30T06:33:19;20.20;99.90
60701;DHT22;46541;49.894;10.886;2022-07-30T06:35:46;20.20;99.90
60701;DHT22;46541;49.894;10.886;2022-07-30T06:38:14;20.30;99.90
60701;DHT22;46541;49.894;10.886;2022-07-30T06:40:41;20.30;99.90
60701;DHT22;46541;49.894;10.886;2022-07-30T06:43:08;20.30;99.90
60701;DHT22;46541;49.894;10.886;2022-07-30T06:45:35;20.30;99.90
60701;DHT22;46541;49.894;10.886;2022-07-30T06:48:02;20.30;99.90
60701;DHT22;46541;49.894;10.886;2022-07-30T06:50:28;20.40;99.90
60701;DHT22;46541;49.894;10.886;2022-07-30T06:52:55;20.40;99.90
60701;DHT22;46541;49.894;10.886;2022-07-30T06:55:22;20.50;99.90
60701;DHT22;46541;49.894;10.886;2022-07-30T06:57:49;20.60;99.90
60701;DHT22;46541;49.894;10.886;2022-07-30T07:00:16;20.60;99.90
60701;DHT22;46541;49.894;10.886;2022-07-30T07:02:43;20.50;99.90
60701;DHT22;46541;49.894;10.886;2022-07-30T07:05:10;20.50;99.90
60701;DHT22;46541;49.894;10.886;2022-07-30T07:07:37;20.50;99.90
60701;DHT22;46541;49.894;10.886;2022-07-30T07:10:12;20.60;99.90
60701;DHT22;46541;49.894;10.886;2022-07-30T07:12:39;20.70;99.90
60701;DHT22;46541;49.894;10.886;2022-07-30T07:15:06;20.80;99.90
60701;DHT22;46541;49.894;10.886;2022-07-30T07:17:33;20.90;99.90
60701;DHT22;46541;49.894;10.886;2022-07-30T07:20:00;21.10;99.90
60701;DHT22;46541;49.894;10.886;2022-07-30T07:22:28;21.20;99.90
60701;DHT22;46541;49.894;10.886;2022-07-30T07:24:55;21.10;99.90
60701;DHT22;46541;49.894;10.886;2022-07-30T07:27:22;21.20;99.90
60701;DHT22;46541;49.894;10.886;2022-07-30T07:29:49;21.30;99.90
60701;DHT22;46541;49.894;10.886;2022-07-30T07:32:32;21.50;99.90
60701;DHT22;46541;49.894;10.886;2022-07-30T07:35:00;21.60;99.90
60701;DHT22;46541;49.894;10.886;2022-07-30T07:37:26;21.50;99.90
60701;DHT22;46541;49.894;10.886;2022-07-30T07:39:53;21.40;99.90
60701;DHT22;46541;49.894;10.886;2022-07-30T07:42:20;21.40;99.90
60701;DHT22;46541;49.894;10.886;2022-07-30T07:44:47;21.50;99.90
60701;DHT22;46541;49.894;10.886;2022-07-30T07:47:14;21.70;99.90
60701;DHT22;46541;49.894;10.886;2022-07-30T07:49:41;21.80;99.90
60701;DHT22;46541;49.894;10.886;2022-07-30T07:52:08;21.90;99.90
60701;DHT22;46541;49.894;10.886;2022-07-30T07:54:35;22.00;99.90
60701;DHT22;46541;49.894;10.886;2022-07-30T07:57:04;22.20;99.90
60701;DHT22;46541;49.894;10.886;2022-07-30T07:59:35;22.50;99.90
60701;DHT22;46541;49.894;10.886;2022-07-30T08:02:07;22.80;99.90
60701;DHT22;46541;49.894;10.886;2022-07-30T08:04:34;22.60;99.90
60701;DHT22;46541;49.894;10.886;2022-07-30T08:07:01;22.60;99.90
60701;DHT22;46541;49.894;10.886;2022-07-30T08:09:29;22.60;99.90
60701;DHT22;46541;49.894;10.886;2022-07-30T08:12:13;22.50;99.90
60701;DHT22;46541;49.894;10.886;2022-07-30T08:14:40;22.40;99.90
60701;DHT22;46541;49.894;10.886;2022-07-30T08:17:06;22.50;99.90
60701;DHT22;46541;49.894;10.886;2022-07-30T08:19:34;22.50;99.90
60701;DHT22;46541;49.894;10.886;2022-07-30T08:22:01;22.70;99.90
60701;DHT22;46541;49.894;10.886;2022-07-30T08:24:28;23.10;99.90
60701;DHT22;46541;49.894;10.886;2022-07-30T08:26:54;23.20;99.90
60701;DHT22;46541;49.894;10.886;2022-07-30T08:29:21;23.40;99.90
60701;DHT22;46541;49.894;10.886;2022-07-30T08:31:48;23.50;99.90
60701;DHT22;46541;49.894;10.886;2022-07-30T08:34:15;23.60;99.90
60701;DHT22;46541;49.894;10.886;2022-07-30T08:36:42;23.80;99.90
60701;DHT22;46541;49.894;10.886;2022-07-30T08:39:09;23.80;99.90
60701;DHT22;46541;49.894;10.886;2022-07-30T08:41:36;23.90;99.90
60701;DHT22;46541;49.894;10.886;2022-07-30T08:44:03;23.60;99.90
60701;DHT22;46541;49.894;10.886;2022-07-30T08:46:40;23.70;99.90
60701;DHT22;46541;49.894;10.886;2022-07-30T08:49:13;24.00;99.90
60701;DHT22;46541;49.894;10.886;2022-07-30T08:51:41;24.20;99.90
60701;DHT22;46541;49.894;10.886;2022-07-30T08:54:08;24.20;99.90
60701;DHT22;46541;49.894;10.886;2022-07-30T08:56:36;24.20;99.90
60701;DHT22;46541;49.894;10.886;2022-07-30T08:59:03;24.20;99.90
60701;DHT22;46541;49.894;10.886;2022-07-30T09:01:30;24.60;99.90
60701;DHT22;46541;49.894;10.886;2022-07-30T09:03:57;25.00;99.90
60701;DHT22;46541;49.894;10.886;2022-07-30T09:06:24;25.20;99.90
60701;DHT22;46541;49.894;10.886;2022-07-30T09:08:52;25.20;99.90
60701;DHT22;46541;49.894;10.886;2022-07-30T09:11:19;25.20;99.90
60701;DHT22;46541;49.894;10.886;2022-07-30T09:13:46;25.00;99.90
60701;DHT22;46541;49.894;10.886;2022-07-30T09:16:24;24.80;99.90
60701;DHT22;46541;49.894;10.886;2022-07-30T09:18:53;25.20;99.90
60701;DHT22;46541;49.894;10.886;2022-07-30T09:24:08;25.90;99.90
60701;DHT22;46541;49.894;10.886;2022-07-30T09:26:59;26.30;99.90
60701;DHT22;46541;49.894;10.886;2022-07-30T09:29:28;25.90;99.90
60701;DHT22;46541;49.894;10.886;2022-07-30T09:32:04;25.70;99.90
60701;DHT22;46541;49.894;10.886;2022-07-30T09:34:34;25.60;99.90
60701;DHT22;46541;49.894;10.886;2022-07-30T09:37:03;25.30;99.90
60701;DHT22;46541;49.894;10.886;2022-07-30T09:39:35;25.20;99.90
60701;DHT22;46541;49.894;10.886;2022-07-30T09:42:21;25.10;99.90
60701;DHT22;46541;49.894;10.886;2022-07-30T09:44:48;25.30;99.90
60701;DHT22;46541;49.894;10.886;2022-07-30T09:47:29;25.50;99.90
60701;DHT22;46541;49.894;10.886;2022-07-30T09:50:11;25.60;99.90
60701;DHT22;46541;49.894;10.886;2022-07-30T09:52:44;25.90;99.70
60701;DHT22;46541;49.894;10.886;2022-07-30T09:55:31;26.10;99.50
60701;DHT22;46541;49.894;10.886;2022-07-30T09:58:01;26.30;98.80
60701;DHT22;46541;49.894;10.886;2022-07-30T10:00:30;26.40;98.20
60701;DHT22;46541;49.894;10.886;2022-07-30T10:02:58;26.40;97.60
60701;DHT22;46541;49.894;10.886;2022-07-30T10:05:38;26.30;97.50
60701;DHT22;46541;49.894;10.886;2022-07-30T10:08:05;26.20;97.40
60701;DHT22;46541;49.894;10.886;2022-07-30T10:10:43;26.00;96.30
60701;DHT22;46541;49.894;10.886;2022-07-30T10:13:17;26.30;96.70
60701;DHT22;46541;49.894;10.886;2022-07-30T10:15:48;26.40;96.90
60701;DHT22;46541;49.894;10.886;2022-07-30T10:18:16;26.60;96.30
60701;DHT22;46541;49.894;10.886;2022-07-30T10:20:43;26.40;95.80
60701;DHT22;46541;49.894;10.886;2022-07-30T10:23:11;26.20;96.20
60701;DHT22;46541;49.894;10.886;2022-07-30T10:25:59;26.30;95.10
60701;DHT22;46541;49.894;10.886;2022-07-30T10:28:30;26.50;93.90
60701;DHT22;46541;49.894;10.886;2022-07-30T10:31:04;26.40;94.40
60701;DHT22;46541;49.894;10.886;2022-07-30T10:33:51;26.70;93.50
60701;DHT22;46541;49.894;10.886;2022-07-30T10:36:20;26.60;93.20
60701;DHT22;46541;49.894;10.886;2022-07-30T10:38:50;26.40;93.40
60701;DHT22;46541;49.894;10.886;2022-07-30T10:47:11;27.10;93.70
60701;DHT22;46541;49.894;10.886;2022-07-30T10:49:39;27.20;93.00
60701;DHT22;46541;49.894;10.886;2022-07-30T10:52:09;27.20;91.90
60701;DHT22;46541;49.894;10.886;2022-07-30T10:54:41;27.20;91.70
60701;DHT22;46541;49.894;10.886;2022-07-30T11:02:27;27.70;88.80
60701;DHT22;46541;49.894;10.886;2022-07-30T11:11:04;27.20;89.90
60701;DHT22;46541;49.894;10.886;2022-07-30T11:13:51;27.50;89.90
60701;DHT22;46541;49.894;10.886;2022-07-30T11:16:21;27.70;86.80
60701;DHT22;46541;49.894;10.886;2022-07-30T11:19:07;27.70;86.40
60701;DHT22;46541;49.894;10.886;2022-07-30T11:24:57;27.30;87.00
60701;DHT22;46541;49.894;10.886;2022-07-30T11:33:19;26.80;88.50
60701;DHT22;46541;49.894;10.886;2022-07-30T11:36:08;26.50;88.70
60701;DHT22;46541;49.894;10.886;2022-07-30T11:38:58;26.20;91.20
60701;DHT22;46541;49.894;10.886;2022-07-30T11:41:32;25.90;99.90
60701;DHT22;46541;49.894;10.886;2022-07-30T11:44:27;25.60;99.90
60701;DHT22;46541;49.894;10.886;2022-07-30T11:46:55;25.10;99.90
60701;DHT22;46541;49.894;10.886;2022-07-30T11:49:21;24.70;99.90
60701;DHT22;46541;49.894;10.886;2022-07-30T11:51:48;24.50;99.90
60701;DHT22;46541;49.894;10.886;2022-07-30T11:54:16;24.30;99.90
60701;DHT22;46541;49.894;10.886;2022-07-30T11:56:52;24.20;99.90
60701;DHT22;46541;49.894;10.886;2022-07-30T11:59:19;24.10;99.90
60701;DHT22;46541;49.894;10.886;2022-07-30T12:01:50;24.10;99.90
60701;DHT22;46541;49.894;10.886;2022-07-30T12:04:18;24.00;99.90
60701;DHT22;46541;49.894;10.886;2022-07-30T12:06:46;23.80;99.90
60701;DHT22;46541;49.894;10.886;2022-07-30T12:09:26;23.70;99.90
60701;DHT22;46541;49.894;10.886;2022-07-30T12:11:56;23.70;99.90
60701;DHT22;46541;49.894;10.886;2022-07-30T12:14:23;23.60;99.90
60701;DHT22;46541;49.894;10.886;2022-07-30T12:16:51;23.70;99.90
60701;DHT22;46541;49.894;10.886;2022-07-30T12:19:19;23.90;99.90
60701;DHT22;46541;49.894;10.886;2022-07-30T12:21:46;23.90;99.90
60701;DHT22;46541;49.894;10.886;2022-07-30T12:24:24;24.00;99.90
60701;DHT22;46541;49.894;10.886;2022-07-30T12:26:52;24.40;99.90
60701;DHT22;46541;49.894;10.886;2022-07-30T12:29:30;24.60;99.90
60701;DHT22;46541;49.894;10.886;2022-07-30T12:31:57;24.80;99.90
60701;DHT22;46541;49.894;10.886;2022-07-30T12:34:25;24.80;99.90
60701;DHT22;46541;49.894;10.886;2022-07-30T12:36:53;24.90;99.90
60701;DHT22;46541;49.894;10.886;2022-07-30T12:39:25;25.10;99.90
60701;DHT22;46541;49.894;10.886;2022-07-30T12:41:53;25.30;99.90
60701;DHT22;46541;49.894;10.886;2022-07-30T12:44:40;25.30;99.90
60701;DHT22;46541;49.894;10.886;2022-07-30T12:47:25;25.30;99.90
60701;DHT22;46541;49.894;10.886;2022-07-30T12:49:56;25.40;99.90
60701;DHT22;46541;49.894;10.886;2022-07-30T12:52:30;25.40;99.90
60701;DHT22;46541;49.894;10.886;2022-07-30T12:54:59;25.60;99.90
60701;DHT22;46541;49.894;10.886;2022-07-30T12:57:26;25.80;99.90
60701;DHT22;46541;49.894;10.886;2022-07-30T13:00:03;26.00;99.50
60701;DHT22;46541;49.894;10.886;2022-07-30T13:02:33;26.30;97.40
60701;DHT22;46541;49.894;10.886;2022-07-30T13:05:01;26.60;95.50
60701;DHT22;46541;49.894;10.886;2022-07-30T13:08:00;26.80;95.70
60701;DHT22;46541;49.894;10.886;2022-07-30T13:10:27;27.00;95.80
60701;DHT22;46541;49.894;10.886;2022-07-30T13:12:57;27.00;93.90
60701;DHT22;46541;49.894;10.886;2022-07-30T13:15:24;27.20;93.40
60701;DHT22;46541;49.894;10.886;2022-07-30T13:17:51;27.50;93.00
60701;DHT22;46541;49.894;10.886;2022-07-30T13:20:18;27.60;89.00
60701;DHT22;46541;49.894;10.886;2022-07-30T13:22:46;27.80;85.10
60701;DHT22;46541;49.894;10.886;2022-07-30T13:25:13;27.80;85.70
60701;DHT22;46541;49.894;10.886;2022-07-30T13:27:39;27.20;84.80
60701;DHT22;46541;49.894;10.886;2022-07-30T13:30:07;26.40;85.10
60701;DHT22;46541;49.894;10.886;2022-07-30T13:32:34;26.00;88.60
60701;DHT22;46541;49.894;10.886;2022-07-30T13:35:00;25.90;90.10
60701;DHT22;46541;49.894;10.886;2022-07-30T13:37:29;25.80;88.90
60701;DHT22;46541;49.894;10.886;2022-07-30T13:40:04;25.70;90.10
60701;DHT22;46541;49.894;10.886;2022-07-30T13:42:31;25.90;91.00
60701;DHT22;46541;49.894;10.886;2022-07-30T13:44:58;26.00;90.50
60701;DHT22;46541;49.894;10.886;2022-07-30T13:47:25;26.10;90.10
60701;DHT22;46541;49.894;10.886;2022-07-30T13:49:52;26.10;90.50
60701;DHT22;46541;49.894;10.886;2022-07-30T13:52:18;26.10;89.50
60701;DHT22;46541;49.894;10.886;2022-07-30T13:54:45;25.90;90.30
60701;DHT22;46541;49.894;10.886;2022-07-30T13:57:12;25.90;90.40
60701;DHT22;46541;49.894;10.886;2022-07-30T13:59:39;25.80;90.90
60701;DHT22;46541;49.894;10.886;2022-07-30T14:02:05;25.60;90.90
60701;DHT22;46541;49.894;10.886;2022-07-30T14:04:32;25.50;90.90
60701;DHT22;46541;49.894;10.886;2022-07-30T14:06:59;25.10;91.00
60701;DHT22;46541;49.894;10.886;2022-07-30T14:09:26;24.90;92.70
60701;DHT22;46541;49.894;10.886;2022-07-30T14:11:53;24.50;99.00
60701;DHT22;46541;49.894;10.886;2022-07-30T14:14:20;24.10;99.90
60701;DHT22;46541;49.894;10.886;2022-07-30T14:16:49;23.80;99.90
60701;DHT22;46541;49.894;10.886;2022-07-30T14:19:19;23.60;99.90
60701;DHT22;46541;49.894;10.886;2022-07-30T14:21:50;23.50;99.90
60701;DHT22;46541;49.894;10.886;2022-07-30T14:24:18;23.10;99.90
60701;DHT22;46541;49.894;10.886;2022-07-30T14:26:45;22.90;99.90
60701;DHT22;46541;49.894;10.886;2022-07-30T14:29:12;22.80;99.90
60701;DHT22;46541;49.894;10.886;2022-07-30T14:31:39;22.60;99.90
60701;DHT22;46541;49.894;10.886;2022-07-30T14:34:06;22.60;99.90
60701;DHT22;46541;49.894;10.886;2022-07-30T14:36:33;22.80;99.90
60701;DHT22;46541;49.894;10.886;2022-07-30T14:39:00;23.00;99.90
60701;DHT22;46541;49.894;10.886;2022-07-30T14:41:30;23.00;99.90
60701;DHT22;46541;49.894;10.886;2022-07-30T14:43:57;22.90;99.90
60701;DHT22;46541;49.894;10.886;2022-07-30T14:46:24;22.80;99.90
60701;DHT22;46541;49.894;10.886;2022-07-30T14:48:51;22.50;99.90
60701;DHT22;46541;49.894;10.886;2022-07-30T14:51:18;21.70;99.90
60701;DHT22;46541;49.894;10.886;2022-07-30T14:53:51;21.40;99.90
60701;DHT22;46541;49.894;10.886;2022-07-30T14:56:18;21.20;99.90
60701;DHT22;46541;49.894;10.886;2022-07-30T14:58:46;21.20;99.90
60701;DHT22;46541;49.894;10.886;2022-07-30T15:01:13;21.50;99.90
60701;DHT22;46541;49.894;10.886;2022-07-30T15:03:43;21.90;99.90
60701;DHT22;46541;49.894;10.886;2022-07-30T15:06:10;22.10;99.90
60701;DHT22;46541;49.894;10.886;2022-07-30T15:08:38;22.30;99.90
60701;DHT22;46541;49.894;10.886;2022-07-30T15:11:05;22.30;99.90
60701;DHT22;46541;49.894;10.886;2022-07-30T15:13:35;22.20;99.90
60701;DHT22;46541;49.894;10.886;2022-07-30T15:16:04;21.90;99.90
60701;DHT22;46541;49.894;10.886;2022-07-30T15:18:32;21.70;99.90
60701;DHT22;46541;49.894;10.886;2022-07-30T15:20:59;21.60;99.90
60701;DHT22;46541;49.894;10.886;2022-07-30T15:23:26;21.50;99.90
60701;DHT22;46541;49.894;10.886;2022-07-30T15:25:53;21.30;99.90
60701;DHT22;46541;49.894;10.886;2022-07-30T15:28:19;21.10;99.90
60701;DHT22;46541;49.894;10.886;2022-07-30T15:30:46;21.00;99.90
60701;DHT22;46541;49.894;10.886;2022-07-30T15:33:13;21.00;99.90
60701;DHT22;46541;49.894;10.886;2022-07-30T15:35:39;21.00;99.90
60701;DHT22;46541;49.894;10.886;2022-07-30T15:38:06;21.00;99.90
60701;DHT22;46541;49.894;10.886;2022-07-30T15:40:33;21.10;99.90
60701;DHT22;46541;49.894;10.886;2022-07-30T15:43:00;21.10;99.90
60701;DHT22;46541;49.894;10.886;2022-07-30T15:45:33;21.10;99.90
60701;DHT22;46541;49.894;10.886;2022-07-30T15:48:20;21.10;99.90
60701;DHT22;46541;49.894;10.886;2022-07-30T15:51:00;21.30;99.90
60701;DHT22;46541;49.894;10.886;2022-07-30T15:53:31;21.60;99.90
60701;DHT22;46541;49.894;10.886;2022-07-30T15:55:58;21.80;99.90
60701;DHT22;46541;49.894;10.886;2022-07-30T15:58:25;22.00;99.90
60701;DHT22;46541;49.894;10.886;2022-07-30T16:00:53;22.20;99.90
60701;DHT22;46541;49.894;10.886;2022-07-30T16:03:20;22.30;99.90
60701;DHT22;46541;49.894;10.886;2022-07-30T16:05:46;22.40;99.90
60701;DHT22;46541;49.894;10.886;2022-07-30T16:08:19;22.40;99.90